createdAt,value
2023-03-04T00:02:13.066Z,54.60
2023-03-04T00:04:39.791Z,54.60
2023-03-04T00:07:06.403Z,54.70
2023-03-04T00:09:33.033Z,54.70
2023-03-04T00:11:59.632Z,54.60
2023-03-04T00:14:27.396Z,54.60
2023-03-04T00:16:55.446Z,54.60
2023-03-04T00:19:21.981Z,54.50
2023-03-04T00:21:48.583Z,54.50
2023-03-04T00:24:15.147Z,54.40
2023-03-04T00:26:41.729Z,54.50
2023-03-04T00:29:08.361Z,54.60
2023-03-04T00:31:34.979Z,54.50
2023-03-04T00:34:01.531Z,54.50
2023-03-04T00:36:28.135Z,54.50
2023-03-04T00:38:54.724Z,54.50
2023-03-04T00:41:21.403Z,54.50
2023-03-04T00:43:48.176Z,54.50
2023-03-04T00:46:14.829Z,54.50
2023-03-04T00:48:41.419Z,54.40
2023-03-04T00:51:08.009Z,54.30
2023-03-04T00:53:34.678Z,54.20
2023-03-04T00:56:01.290Z,54.10
2023-03-04T00:58:27.958Z,54.40
2023-03-04T01:00:54.719Z,54.30
2023-03-04T01:03:21.395Z,54.40
2023-03-04T01:05:47.937Z,54.30
2023-03-04T01:08:14.526Z,54.30
2023-03-04T01:10:41.148Z,54.30
2023-03-04T01:13:07.800Z,54.30
2023-03-04T01:15:34.379Z,54.30
2023-03-04T01:18:01.052Z,54.40
2023-03-04T01:20:27.600Z,54.30
2023-03-04T01:22:54.213Z,54.20
2023-03-04T01:25:20.824Z,54.30
2023-03-04T01:27:47.409Z,54.30
2023-03-04T01:30:14.224Z,54.20
2023-03-04T01:32:40.912Z,54.20
2023-03-04T01:35:07.887Z,54.10
2023-03-04T01:37:34.848Z,54.10
2023-03-04T01:40:01.598Z,54.10
2023-03-04T01:42:32.223Z,54.00
2023-03-04T01:44:58.967Z,54.10
2023-03-04T01:47:29.586Z,54.00
2023-03-04T01:49:57.738Z,54.00
2023-03-04T01:52:26.926Z,54.00
2023-03-04T01:54:53.774Z,54.00
2023-03-04T01:57:23.439Z,53.90
2023-03-04T02:00:21.690Z,54.00
2023-03-04T02:02:52.799Z,53.90
2023-03-04T02:05:20.491Z,53.90
2023-03-04T02:07:47.115Z,53.90
2023-03-04T02:10:14.050Z,53.80
2023-03-04T02:12:40.947Z,53.80
2023-03-04T02:15:08.524Z,53.80
2023-03-04T02:17:35.105Z,53.70
2023-03-04T02:20:21.883Z,53.80
2023-03-04T02:23:19.680Z,53.80
2023-03-04T02:26:14.197Z,53.60
2023-03-04T02:28:41.331Z,53.60
2023-03-04T02:31:24.597Z,53.70
2023-03-04T02:33:52.799Z,53.60
2023-03-04T02:36:19.602Z,53.60
2023-03-04T02:38:46.447Z,53.60
2023-03-04T02:41:16.523Z,53.60
2023-03-04T02:43:45.616Z,53.60
2023-03-04T02:46:13.532Z,53.50
2023-03-04T02:48:40.170Z,53.50
2023-03-04T02:51:06.798Z,53.40
2023-03-04T02:53:33.526Z,53.50
2023-03-04T02:56:00.191Z,53.60
2023-03-04T02:58:26.785Z,53.40
2023-03-04T03:00:53.416Z,53.60
2023-03-04T03:03:20.075Z,53.50
2023-03-04T03:05:46.766Z,53.40
2023-03-04T03:08:13.344Z,54.00
2023-03-04T03:10:40.023Z,53.40
2023-03-04T03:13:06.626Z,53.30
2023-03-04T03:15:34.643Z,53.30
2023-03-04T03:18:01.290Z,53.20
2023-03-04T03:20:27.952Z,53.20
2023-03-04T03:22:54.574Z,53.30
2023-03-04T03:25:21.173Z,53.20
2023-03-04T03:27:47.879Z,53.10
2023-03-04T03:30:15.797Z,53.10
2023-03-04T03:32:42.496Z,53.10
2023-03-04T03:35:09.426Z,53.00
2023-03-04T03:37:36.149Z,53.00
2023-03-04T03:40:03.651Z,53.00
2023-03-04T03:42:30.234Z,52.80
2023-03-04T03:44:56.909Z,53.00
2023-03-04T03:47:24.493Z,52.80
2023-03-04T03:49:51.125Z,52.80
2023-03-04T03:52:17.731Z,52.80
2023-03-04T03:54:44.390Z,52.90
2023-03-04T03:57:11.035Z,52.80
2023-03-04T03:59:37.693Z,52.90
2023-03-04T04:02:04.355Z,52.80
2023-03-04T04:04:30.936Z,52.80
2023-03-04T04:06:57.516Z,52.80
2023-03-04T04:09:24.148Z,52.80
2023-03-04T04:11:50.753Z,52.80
2023-03-04T04:14:17.339Z,52.70
2023-03-04T04:16:44.144Z,52.70
2023-03-04T04:19:17.953Z,52.60
2023-03-04T04:21:44.716Z,52.70
2023-03-04T04:24:11.353Z,52.60
2023-03-04T04:26:37.999Z,52.60
2023-03-04T04:29:04.676Z,52.60
2023-03-04T04:31:31.286Z,52.60
2023-03-04T04:33:57.960Z,52.70
2023-03-04T04:36:24.499Z,52.50
2023-03-04T04:38:51.145Z,52.50
2023-03-04T04:41:28.325Z,52.50
2023-03-04T04:43:55.176Z,52.50
2023-03-04T04:46:21.904Z,52.50
2023-03-04T04:48:48.577Z,52.40
2023-03-04T04:51:15.266Z,52.40
2023-03-04T04:53:41.977Z,52.40
2023-03-04T04:56:14.515Z,52.40
2023-03-04T04:58:42.537Z,52.30
2023-03-04T05:01:09.939Z,52.20
2023-03-04T05:03:38.109Z,52.30
2023-03-04T05:06:06.879Z,52.30
2023-03-04T05:08:33.759Z,52.20
2023-03-04T05:11:00.511Z,52.20
2023-03-04T05:13:27.310Z,52.20
2023-03-04T05:15:55.881Z,52.20
2023-03-04T05:18:24.532Z,52.10
2023-03-04T05:20:52.504Z,52.10
2023-03-04T05:23:19.610Z,52.10
2023-03-04T05:25:46.921Z,52.10
2023-03-04T05:28:14.124Z,52.10
2023-03-04T05:30:42.027Z,52.10
2023-03-04T05:33:09.706Z,52.00
2023-03-04T05:35:37.402Z,52.00
2023-03-04T05:38:05.088Z,52.00
2023-03-04T05:40:31.705Z,52.00
2023-03-04T05:42:58.456Z,51.90
2023-03-04T05:45:26.002Z,51.90
2023-03-04T05:47:53.786Z,51.90
2023-03-04T05:50:21.155Z,51.90
2023-03-04T05:52:47.985Z,51.90
2023-03-04T05:55:15.095Z,51.90
2023-03-04T05:57:41.752Z,51.90
2023-03-04T06:00:09.367Z,51.90
2023-03-04T06:02:36.736Z,51.90
2023-03-04T06:05:04.328Z,51.90
2023-03-04T06:07:31.374Z,51.90
2023-03-04T06:09:58.173Z,51.80
2023-03-04T06:12:24.825Z,51.80
2023-03-04T06:14:51.434Z,51.80
2023-03-04T06:17:18.072Z,51.80
2023-03-04T06:19:44.740Z,51.70
2023-03-04T06:22:11.542Z,51.70
2023-03-04T06:24:38.188Z,51.70
2023-03-04T06:27:05.052Z,51.70
2023-03-04T06:29:32.226Z,51.70
2023-03-04T06:31:59.301Z,51.70
2023-03-04T06:34:25.969Z,51.70
2023-03-04T06:36:52.578Z,51.70
2023-03-04T06:39:19.258Z,51.70
2023-03-04T06:41:46.058Z,51.60
2023-03-04T06:44:12.794Z,51.60
2023-03-04T06:46:39.401Z,52.20
2023-03-04T06:49:06.026Z,51.60
2023-03-04T06:51:32.699Z,51.60
2023-03-04T06:53:59.385Z,51.60
2023-03-04T06:56:25.967Z,51.70
2023-03-04T06:58:52.714Z,51.80
2023-03-04T07:01:27.974Z,51.70
2023-03-04T07:03:55.714Z,51.70
2023-03-04T07:06:25.841Z,51.60
2023-03-04T07:08:53.276Z,47.70
2023-03-04T07:11:21.890Z,46.70
2023-03-04T07:13:49.087Z,48.70
2023-03-04T07:16:19.400Z,49.80
2023-03-04T07:18:46.637Z,50.00
2023-03-04T07:21:15.410Z,50.20
2023-03-04T07:23:42.055Z,50.20
2023-03-04T07:26:09.194Z,50.30
2023-03-04T07:28:36.027Z,50.30
2023-03-04T07:31:24.433Z,50.40
2023-03-04T07:33:51.260Z,50.50
2023-03-04T07:36:19.673Z,50.60
2023-03-04T07:38:47.749Z,50.60
2023-03-04T07:41:15.251Z,50.80
2023-03-04T07:43:41.901Z,50.80
2023-03-04T07:46:09.670Z,50.80
2023-03-04T07:48:37.208Z,50.80
2023-03-04T07:51:15.762Z,50.80
2023-03-04T07:53:45.512Z,50.40
2023-03-04T07:56:14.669Z,39.20
2023-03-04T07:58:41.326Z,37.60
2023-03-04T08:01:13.753Z,37.90
2023-03-04T08:03:40.764Z,42.00
2023-03-04T08:06:09.949Z,42.20
2023-03-04T08:08:37.471Z,42.70
2023-03-04T08:11:06.319Z,43.20
2023-03-04T08:13:33.515Z,44.00
2023-03-04T08:16:00.303Z,44.10
2023-03-04T08:18:27.209Z,44.10
2023-03-04T08:20:54.044Z,44.30
2023-03-04T08:23:20.821Z,44.40
2023-03-04T08:25:48.357Z,44.60
2023-03-04T08:28:16.232Z,44.80
2023-03-04T08:30:43.003Z,45.00
2023-03-04T08:33:10.221Z,45.20
2023-03-04T08:35:38.967Z,45.40
2023-03-04T08:38:06.269Z,45.60
2023-03-04T08:40:33.351Z,45.90
2023-03-04T08:43:00.372Z,45.80
2023-03-04T08:45:27.071Z,46.00
2023-03-04T08:47:53.716Z,46.00
2023-03-04T08:50:22.547Z,46.20
2023-03-04T08:52:49.399Z,46.40
2023-03-04T08:55:16.304Z,46.60
2023-03-04T08:57:43.013Z,46.80
2023-03-04T09:00:10.458Z,47.20
2023-03-04T09:02:37.068Z,46.90
2023-03-04T09:05:04.242Z,47.10
2023-03-04T09:07:30.880Z,47.30
2023-03-04T09:09:57.507Z,47.20
2023-03-04T09:12:24.567Z,47.40
2023-03-04T09:15:04.639Z,47.50
2023-03-04T09:17:36.736Z,47.60
2023-03-04T09:20:04.735Z,47.60
2023-03-04T09:22:31.717Z,47.70
2023-03-04T09:24:58.291Z,47.60
2023-03-04T09:27:25.030Z,47.70
2023-03-04T09:29:51.649Z,47.80
2023-03-04T09:32:18.386Z,37.40
2023-03-04T09:34:45.046Z,37.70
2023-03-04T09:37:11.732Z,39.70
2023-03-04T09:39:38.327Z,40.10
2023-03-04T09:42:07.539Z,41.90
2023-03-04T09:44:40.823Z,42.90
2023-03-04T09:47:13.906Z,43.10
2023-03-04T09:49:44.378Z,41.90
2023-03-04T09:52:13.650Z,42.50
2023-03-04T09:55:17.720Z,43.10
2023-03-04T09:58:06.716Z,43.20
2023-03-04T10:00:43.026Z,45.30
2023-03-04T10:03:15.725Z,43.30
2023-03-04T10:06:16.881Z,43.20
2023-03-04T10:08:46.266Z,47.20
2023-03-04T10:11:23.442Z,43.40
2023-03-04T10:14:05.090Z,43.10
2023-03-04T10:16:40.586Z,43.30
2023-03-04T10:19:31.590Z,41.90
2023-03-04T10:21:58.694Z,42.90
2023-03-04T10:24:28.864Z,44.50
2023-03-04T10:27:05.252Z,36.60
2023-03-04T10:29:33.438Z,36.60
2023-03-04T10:32:00.098Z,37.60
2023-03-04T10:34:26.866Z,38.60
2023-03-04T10:37:01.764Z,39.40
2023-03-04T10:39:34.564Z,39.50
2023-03-04T10:42:07.515Z,38.70
2023-03-04T10:44:35.355Z,37.60
2023-03-04T10:47:02.168Z,38.70
2023-03-04T10:49:29.819Z,38.70
2023-03-04T10:52:22.764Z,39.20
2023-03-04T10:54:53.857Z,39.90
2023-03-04T10:57:41.744Z,40.20
2023-03-04T11:00:17.558Z,40.60
2023-03-04T11:02:46.071Z,40.70
2023-03-04T11:05:18.400Z,40.70
2023-03-04T11:07:55.526Z,41.00
2023-03-04T11:10:24.177Z,41.10
2023-03-04T11:13:00.297Z,41.30
2023-03-04T11:15:31.155Z,41.60
2023-03-04T11:18:02.555Z,41.70
2023-03-04T11:20:35.643Z,41.80
2023-03-04T11:23:14.508Z,41.90
2023-03-04T11:25:46.507Z,42.00
2023-03-04T11:28:47.089Z,42.00
2023-03-04T11:31:18.504Z,42.00
2023-03-04T11:33:55.530Z,42.10
2023-03-04T11:36:43.867Z,42.30
2023-03-04T11:40:15.281Z,42.40
2023-03-04T11:42:51.123Z,42.40
2023-03-04T11:45:29.224Z,42.50
2023-03-04T11:48:17.948Z,42.70
2023-03-04T11:50:57.914Z,42.90
2023-03-04T11:53:36.369Z,42.80
2023-03-04T11:56:35.424Z,42.90
2023-03-04T11:59:23.386Z,42.90
2023-03-04T12:02:11.032Z,44.00
2023-03-04T12:04:52.795Z,42.90
2023-03-04T12:07:42.440Z,43.10
2023-03-04T12:10:27.691Z,43.20
2023-03-04T12:13:42.495Z,43.30
2023-03-04T12:16:30.251Z,43.30
2023-03-04T12:19:36.597Z,43.30
2023-03-04T12:22:30.386Z,43.60
2023-03-04T12:25:09.394Z,43.50
2023-03-04T12:27:55.217Z,43.40
2023-03-04T12:30:33.780Z,43.60
2023-03-04T12:33:23.695Z,43.90
2023-03-04T12:36:01.543Z,43.70
2023-03-04T12:38:50.750Z,43.90
2023-03-04T12:41:23.347Z,41.90
2023-03-04T12:43:59.849Z,43.90
2023-03-04T12:46:56.692Z,45.50
2023-03-04T12:50:01.205Z,45.20
2023-03-04T12:52:49.612Z,45.60
2023-03-04T12:55:20.172Z,45.30
2023-03-04T12:57:46.856Z,45.20
2023-03-04T13:00:32.271Z,45.30
2023-03-04T13:03:11.043Z,45.50
2023-03-04T13:05:40.776Z,45.70
2023-03-04T13:08:31.555Z,45.30
2023-03-04T13:11:22.614Z,46.10
2023-03-04T13:14:21.647Z,45.60
2023-03-04T13:16:54.460Z,45.80
2023-03-04T13:19:47.047Z,45.90
2023-03-04T13:22:35.660Z,45.80
2023-03-04T13:25:39.117Z,45.90
2023-03-04T13:28:19.182Z,45.80
2023-03-04T13:30:55.804Z,45.90
2023-03-04T13:33:22.573Z,45.80
2023-03-04T13:36:02.092Z,45.90
2023-03-04T13:38:30.767Z,46.20
2023-03-04T13:41:18.997Z,45.90
2023-03-04T13:43:55.430Z,46.00
2023-03-04T13:46:26.760Z,45.90
2023-03-04T13:48:56.113Z,46.00
2023-03-04T13:51:41.508Z,46.00
2023-03-04T13:54:16.050Z,46.10
2023-03-04T13:56:47.620Z,46.50
2023-03-04T13:59:22.202Z,45.90
2023-03-04T14:01:55.495Z,46.00
2023-03-04T14:04:42.739Z,46.10
2023-03-04T14:07:22.449Z,46.10
2023-03-04T14:10:07.568Z,46.10
2023-03-04T14:12:37.212Z,46.10
2023-03-04T14:15:16.313Z,46.20
2023-03-04T14:17:49.476Z,46.20
2023-03-04T14:20:29.528Z,46.20
2023-03-04T14:22:57.712Z,46.20
2023-03-04T14:25:30.069Z,46.10
2023-03-04T14:28:06.735Z,46.20
2023-03-04T14:30:42.755Z,46.20
2023-03-04T14:33:17.628Z,46.00
2023-03-04T14:35:54.214Z,46.20
2023-03-04T14:38:31.865Z,46.00
2023-03-04T14:41:15.611Z,44.10
2023-03-04T14:43:53.642Z,45.30
2023-03-04T14:46:22.305Z,45.70
2023-03-04T14:48:53.586Z,45.70
2023-03-04T14:51:47.110Z,45.60
2023-03-04T14:54:41.235Z,45.60
2023-03-04T14:57:29.857Z,45.90
2023-03-04T14:59:56.611Z,46.00
2023-03-04T15:02:39.561Z,45.90
2023-03-04T15:05:17.760Z,45.90
2023-03-04T15:07:51.183Z,46.00
2023-03-04T15:10:25.625Z,46.00
2023-03-04T15:13:00.922Z,46.10
2023-03-04T15:15:43.974Z,46.20
2023-03-04T15:18:27.210Z,46.20
2023-03-04T15:20:57.890Z,46.20
2023-03-04T15:23:26.201Z,46.30
2023-03-04T15:25:54.444Z,46.20
2023-03-04T15:28:23.069Z,35.80
2023-03-04T15:30:50.196Z,49.90
2023-03-04T15:33:19.300Z,38.30
2023-03-04T15:35:56.245Z,38.80
2023-03-04T15:38:23.547Z,39.50
2023-03-04T15:40:52.613Z,40.90
2023-03-04T15:43:22.959Z,41.80
2023-03-04T15:45:50.838Z,42.00
2023-03-04T15:48:18.854Z,42.00
2023-03-04T15:51:02.720Z,41.80
2023-03-04T15:53:35.608Z,42.00
2023-03-04T15:56:03.948Z,42.10
2023-03-04T15:58:34.839Z,42.40
2023-03-04T16:01:01.988Z,42.50
2023-03-04T16:03:28.878Z,42.80
2023-03-04T16:05:56.560Z,42.90
2023-03-04T16:08:25.133Z,43.20
2023-03-04T16:10:53.672Z,43.50
2023-03-04T16:13:22.784Z,43.80
2023-03-04T16:15:49.663Z,44.50
2023-03-04T16:18:17.014Z,44.70
2023-03-04T16:20:47.287Z,45.10
2023-03-04T16:23:18.658Z,45.90
2023-03-04T16:25:47.058Z,46.10
2023-03-04T16:28:13.991Z,45.90
2023-03-04T16:30:41.806Z,45.90
2023-03-04T16:33:08.947Z,46.20
2023-03-04T16:35:37.691Z,39.20
2023-03-04T16:38:07.255Z,36.50
2023-03-04T16:40:33.877Z,48.80
2023-03-04T16:43:00.651Z,39.70
2023-03-04T16:45:32.673Z,42.50
2023-03-04T16:47:59.343Z,43.60
2023-03-04T16:50:29.051Z,43.70
2023-03-04T16:52:56.328Z,43.40
2023-03-04T16:55:28.762Z,43.20
2023-03-04T16:57:57.638Z,43.30
2023-03-04T17:00:27.280Z,43.50
2023-03-04T17:03:04.011Z,43.70
2023-03-04T17:05:32.935Z,44.20
2023-03-04T17:07:59.580Z,44.30
2023-03-04T17:10:26.317Z,44.50
2023-03-04T17:12:53.032Z,44.90
2023-03-04T17:15:19.992Z,45.00
2023-03-04T17:17:47.066Z,45.10
2023-03-04T17:20:16.382Z,45.50
2023-03-04T17:22:44.082Z,44.30
2023-03-04T17:25:12.483Z,42.00
2023-03-04T17:27:39.227Z,42.30
2023-03-04T17:30:08.963Z,43.90
2023-03-04T17:32:39.060Z,44.90
2023-03-04T17:35:08.000Z,45.10
2023-03-04T17:37:35.436Z,45.40
2023-03-04T17:40:07.016Z,45.50
2023-03-04T17:42:33.701Z,45.70
2023-03-04T17:45:00.524Z,46.00
2023-03-04T17:47:27.169Z,46.20
2023-03-04T17:49:53.819Z,46.30
2023-03-04T17:52:21.406Z,47.00
2023-03-04T17:54:48.312Z,46.80
2023-03-04T17:57:15.008Z,46.90
2023-03-04T17:59:41.702Z,47.10
2023-03-04T18:02:14.211Z,47.10
2023-03-04T18:04:40.879Z,48.20
2023-03-04T18:07:07.564Z,47.40
2023-03-04T18:09:34.527Z,47.60
2023-03-04T18:12:01.415Z,47.40
2023-03-04T18:14:28.101Z,47.50
2023-03-04T18:16:54.748Z,47.60
2023-03-04T18:19:21.492Z,47.80
2023-03-04T18:21:48.319Z,47.80
2023-03-04T18:24:14.938Z,47.90
2023-03-04T18:26:41.698Z,48.10
2023-03-04T18:29:08.340Z,48.00
2023-03-04T18:31:36.832Z,48.40
2023-03-04T18:34:04.706Z,48.00
2023-03-04T18:36:31.701Z,48.30
2023-03-04T18:38:59.518Z,48.20
2023-03-04T18:41:27.717Z,48.40
2023-03-04T18:43:54.652Z,48.40
2023-03-04T18:46:29.357Z,48.70
2023-03-04T18:49:01.772Z,49.70
2023-03-04T18:51:28.668Z,49.40
2023-03-04T18:53:55.315Z,48.70
2023-03-04T18:56:31.543Z,48.60
2023-03-04T18:58:59.277Z,50.00
2023-03-04T19:01:26.802Z,48.90
2023-03-04T19:03:55.541Z,48.80
2023-03-04T19:06:24.819Z,48.80
2023-03-04T19:08:55.178Z,48.80
2023-03-04T19:11:24.702Z,49.00
2023-03-04T19:13:51.836Z,49.00
2023-03-04T19:16:18.563Z,48.90
2023-03-04T19:18:45.286Z,49.00
2023-03-04T19:21:12.041Z,49.00
2023-03-04T19:23:39.940Z,49.10
2023-03-04T19:26:08.239Z,49.30
2023-03-04T19:28:35.897Z,49.30
2023-03-04T19:31:07.262Z,49.30
2023-03-04T19:33:37.556Z,50.60
2023-03-04T19:36:06.037Z,51.10
2023-03-04T19:38:33.756Z,49.40
2023-03-04T19:41:07.311Z,49.40
2023-03-04T19:43:36.825Z,49.30
2023-03-04T19:46:03.579Z,49.30
2023-03-04T19:48:30.286Z,49.50
2023-03-04T19:50:56.935Z,49.50
2023-03-04T19:53:23.580Z,49.50
2023-03-04T19:55:50.473Z,49.60
2023-03-04T19:58:17.722Z,49.50
2023-03-04T20:00:45.459Z,49.30
2023-03-04T20:03:13.319Z,49.60
2023-03-04T20:05:40.042Z,49.40
2023-03-04T20:08:07.010Z,48.40
2023-03-04T20:10:37.000Z,49.10
2023-03-04T20:13:05.883Z,49.20
2023-03-04T20:15:34.472Z,49.40
2023-03-04T20:18:02.133Z,49.40
2023-03-04T20:20:29.269Z,47.80
2023-03-04T20:22:56.530Z,49.00
2023-03-04T20:25:24.610Z,49.50
2023-03-04T20:27:51.379Z,49.40
2023-03-04T20:30:18.401Z,49.50
2023-03-04T20:32:45.379Z,49.50
2023-03-04T20:35:15.013Z,49.40
2023-03-04T20:37:42.278Z,49.50
2023-03-04T20:40:12.749Z,49.50
2023-03-04T20:42:39.553Z,49.60
2023-03-04T20:45:06.979Z,49.70
2023-03-04T20:47:33.694Z,49.70
2023-03-04T20:50:00.402Z,49.70
2023-03-04T20:52:26.997Z,49.70
2023-03-04T20:54:53.791Z,49.70
2023-03-04T20:57:20.555Z,49.70
2023-03-04T20:59:47.160Z,49.80
2023-03-04T21:02:15.844Z,49.80
2023-03-04T21:04:43.852Z,51.50
2023-03-04T21:07:10.535Z,50.00
2023-03-04T21:09:37.204Z,49.90
2023-03-04T21:12:04.140Z,50.00
2023-03-04T21:14:32.361Z,49.90
2023-03-04T21:17:01.731Z,50.00
2023-03-04T21:19:34.209Z,51.60
2023-03-04T21:22:02.159Z,49.80
2023-03-04T21:24:31.729Z,49.80
2023-03-04T21:26:58.972Z,49.90
2023-03-04T21:29:28.093Z,49.80
2023-03-04T21:32:16.759Z,49.80
2023-03-04T21:34:51.691Z,49.80
2023-03-04T21:37:22.708Z,49.80
2023-03-04T21:39:49.364Z,49.80
2023-03-04T21:42:16.099Z,49.80
2023-03-04T21:44:49.568Z,49.80
2023-03-04T21:47:17.540Z,49.90
2023-03-04T21:49:44.296Z,49.80
2023-03-04T21:52:11.003Z,49.70
2023-03-04T21:54:37.688Z,49.70
2023-03-04T21:57:04.352Z,49.80
2023-03-04T21:59:31.094Z,49.70
2023-03-04T22:01:57.795Z,49.70
2023-03-04T22:04:24.485Z,49.70
2023-03-04T22:06:52.239Z,49.80
2023-03-04T22:09:18.855Z,49.70
2023-03-04T22:11:45.539Z,49.70
2023-03-04T22:14:12.231Z,49.70
2023-03-04T22:16:54.085Z,49.70
2023-03-04T22:19:23.246Z,49.70
2023-03-04T22:21:51.544Z,49.70
2023-03-04T22:24:18.682Z,49.70
2023-03-04T22:26:45.300Z,49.70
2023-03-04T22:29:12.043Z,49.60
2023-03-04T22:31:39.061Z,49.60
2023-03-04T22:34:11.925Z,49.70
2023-03-04T22:36:41.994Z,49.60
2023-03-04T22:39:10.276Z,49.60
2023-03-04T22:41:37.351Z,49.70
2023-03-04T22:44:06.138Z,49.50
2023-03-04T22:46:34.596Z,49.60
2023-03-04T22:49:08.626Z,49.50
2023-03-04T22:51:35.695Z,49.70
2023-03-04T22:54:02.439Z,49.70
2023-03-04T22:56:29.207Z,49.70
2023-03-04T22:58:55.884Z,49.70
2023-03-04T23:01:22.942Z,49.70
2023-03-04T23:03:50.636Z,49.90
2023-03-04T23:06:18.724Z,46.20
2023-03-04T23:08:48.050Z,45.40
2023-03-04T23:11:20.022Z,45.70
2023-03-04T23:13:50.942Z,45.90
2023-03-04T23:16:19.353Z,46.60
2023-03-04T23:18:47.295Z,47.10
2023-03-04T23:21:17.903Z,47.40
2023-03-04T23:23:45.087Z,47.60
2023-03-04T23:26:21.592Z,47.60
2023-03-04T23:28:49.165Z,47.70
2023-03-04T23:31:19.444Z,47.70
2023-03-04T23:33:48.197Z,47.80
2023-03-04T23:36:18.388Z,47.90
2023-03-04T23:38:47.612Z,48.00
2023-03-04T23:41:18.050Z,48.00
2023-03-04T23:43:45.097Z,48.10
2023-03-04T23:46:12.522Z,48.10
2023-03-04T23:48:41.096Z,48.10
2023-03-04T23:51:09.462Z,48.20
2023-03-04T23:53:38.862Z,48.20
2023-03-04T23:56:14.587Z,48.30
2023-03-04T23:58:42.780Z,48.30
